Time;durP1;ratioP1;P1;durP2;ratioP2;P2;SDS_P1;SDS_P2;PMS_P1;PMS_P2;Temp;Humidity;BMP_temperature;BMP_pressure;BME280_temperature;BME280_humidity;BME280_pressure;Samples;Min_cycle;Max_cycle;Signal;HPM_P1;HPM_P2
2023/07/04 00:00:39;;;;;;;4.03;1.73;;;;;;;16.40;72.84;95489.63;4974991;28;20184;-83
2023/07/04 00:03:04;;;;;;;1.75;1.58;;;;;;;16.28;73.55;95480.63;4951360;28;20180;-83
2023/07/04 00:05:29;;;;;;;2.55;1.80;;;;;;;16.32;73.32;95481.88;4960899;28;20230;-82
2023/07/04 00:07:55;;;;;;;4.20;1.58;;;;;;;16.31;73.50;95480.25;4931328;29;20254;-84
2023/07/04 00:10:20;;;;;;;2.25;1.50;;;;;;;16.35;73.27;95475.47;4961036;28;20271;-81
2023/07/04 00:12:46;;;;;;;4.00;1.90;;;;;;;16.40;72.82;95473.09;4943894;29;20240;-81
2023/07/04 00:15:13;;;;;;;2.15;1.92;;;;;;;16.40;72.90;95471.28;4985649;28;20920;-81
2023/07/04 00:17:39;;;;;;;1.92;1.73;;;;;;;16.29;73.31;95476.22;4946853;28;20189;-81
2023/07/04 00:20:05;;;;;;;2.05;1.58;;;;;;;16.36;72.79;95471.84;4987048;28;20196;-83
2023/07/04 00:22:31;;;;;;;2.13;1.70;;;;;;;16.29;73.21;95473.59;4976301;28;20190;-82
2023/07/04 00:24:57;;;;;;;2.47;1.60;;;;;;;16.33;72.37;95467.78;4945566;29;20209;-82
2023/07/04 00:27:23;;;;;;;2.33;1.70;;;;;;;16.25;73.44;95470.50;4968401;28;20193;-82
2023/07/04 00:29:50;;;;;;;2.25;1.65;;;;;;;16.32;73.10;95470.59;4964026;28;20192;-82
2023/07/04 00:32:15;;;;;;;2.70;1.65;;;;;;;16.31;73.33;95474.22;4956156;28;20248;-82
2023/07/04 00:34:45;;;;;;;2.38;1.73;;;;;;;16.28;73.50;95474.59;4979408;28;20236;-82
2023/07/04 00:37:11;;;;;;;3.25;2.00;;;;;;;16.39;73.08;95469.66;4956104;28;20219;-82
2023/07/04 00:39:37;;;;;;;1.83;1.42;;;;;;;16.41;72.85;95474.72;4958517;28;20193;-85
2023/07/04 00:42:05;;;;;;;1.52;1.42;;;;;;;16.66;71.73;95483.03;4973030;28;20180;-83
2023/07/04 00:44:34;;;;;;;3.08;1.80;;;;;;;16.67;71.65;95482.03;4977665;28;20207;-83
2023/07/04 00:47:10;;;;;;;2.80;1.58;;;;;;;16.65;71.84;95482.25;4951171;28;20207;-82
2023/07/04 00:49:38;;;;;;;2.92;1.63;;;;;;;16.64;71.50;95480.63;4959617;28;20206;-83
2023/07/04 00:52:09;;;;;;;2.50;1.67;;;;;;;16.64;71.69;95490.28;4942524;29;20209;-83
2023/07/04 00:54:37;;;;;;;2.45;1.80;;;;;;;16.73;71.11;95488.41;4973048;28;20201;-84
2023/07/04 00:57:04;;;;;;;2.67;1.80;;;;;;;16.70;70.90;95490.41;4957326;29;20240;-82
2023/07/04 00:59:37;;;;;;;1.63;1.50;;;;;;;16.74;71.21;95492.63;4938783;28;20187;-82
2023/07/04 01:02:03;;;;;;;3.20;1.75;;;;;;;16.76;70.83;95490.63;4975898;28;20183;-82
2023/07/04 01:04:30;;;;;;;1.77;1.67;;;;;;;16.79;70.67;95490.28;4949286;28;20587;-83
2023/07/04 01:07:05;;;;;;;2.63;1.60;;;;;;;16.86;70.35;95488.50;4963680;28;20600;-82
2023/07/04 01:09:31;;;;;;;1.77;1.50;;;;;;;16.76;70.57;95490.63;4968989;28;20188;-82
2023/07/04 01:11:56;;;;;;;4.63;1.77;;;;;;;16.86;70.04;95491.94;4976679;28;20747;-82
2023/07/04 01:14:24;;;;;;;2.15;1.60;;;;;;;16.94;69.35;95486.56;4974050;28;20195;-82
2023/07/04 01:16:50;;;;;;;2.80;1.65;;;;;;;16.95;69.37;95492.63;4990438;28;20199;-83
2023/07/04 01:19:24;;;;;;;3.33;1.70;;;;;;;16.81;70.32;95501.38;4982695;28;20177;-83
2023/07/04 01:21:51;;;;;;;3.67;1.63;;;;;;;16.67;71.08;95505.63;4952887;28;20425;-82
2023/07/04 01:24:29;;;;;;;3.70;1.60;;;;;;;16.56;71.92;95499.09;4947655;28;20184;-82
2023/07/04 01:26:54;;;;;;;3.22;2.00;;;;;;;16.47;72.23;95502.81;4960003;28;20189;-82
2023/07/04 01:29:21;;;;;;;3.08;1.83;;;;;;;16.41;72.81;95506.97;4945978;28;20747;-82
2023/07/04 01:31:46;;;;;;;3.05;1.50;;;;;;;16.49;72.16;95500.81;4972006;28;20267;-86
2023/07/04 01:34:13;;;;;;;3.75;1.75;;;;;;;16.54;72.06;95506.31;4963022;28;20220;-82
2023/07/04 01:36:41;;;;;;;2.28;1.65;;;;;;;16.59;71.83;95503.13;4981370;28;20188;-83
2023/07/04 01:39:08;;;;;;;2.78;2.00;;;;;;;16.61;71.76;95501.97;4972201;28;20550;-82
2023/07/04 01:41:33;;;;;;;3.20;1.60;;;;;;;16.64;71.71;95512.06;4989808;28;20185;-82
2023/07/04 01:44:03;;;;;;;2.35;1.88;;;;;;;16.47;72.51;95508.06;4959478;28;20188;-82
2023/07/04 01:46:28;;;;;;;1.60;1.50;;;;;;;16.62;71.92;95503.59;4981178;28;20204;-82
2023/07/04 01:48:55;;;;;;;2.28;1.73;;;;;;;16.68;71.52;95499.41;4969791;28;20389;-83
2023/07/04 01:51:39;;;;;;;2.10;1.85;;;;;;;16.64;71.58;95501.59;4980701;28;20188;-83
2023/07/04 01:54:06;;;;;;;2.90;2.08;;;;;;;16.46;72.45;95506.44;4983946;28;20194;-83
2023/07/04 01:56:32;;;;;;;2.55;1.88;;;;;;;16.50;72.34;95507.69;4949251;28;20204;-82
2023/07/04 01:58:58;;;;;;;3.00;2.30;;;;;;;16.45;72.80;95507.44;4974285;28;20188;-83
2023/07/04 02:01:24;;;;;;;2.67;2.00;;;;;;;16.53;72.44;95496.84;4958243;28;20191;-83
2023/07/04 02:03:51;;;;;;;2.10;1.73;;;;;;;16.41;73.17;95491.25;4965298;28;20189;-84
2023/07/04 02:06:16;;;;;;;3.03;2.05;;;;;;;16.39;72.88;95493.25;4972196;28;20669;-83
2023/07/04 02:08:42;;;;;;;4.70;1.65;;;;;;;16.42;72.68;95486.81;4967146;28;20189;-82
2023/07/04 02:11:07;;;;;;;3.05;1.88;;;;;;;16.23;73.39;95482.97;4978119;28;20227;-82
2023/07/04 02:13:32;;;;;;;5.20;1.75;;;;;;;16.32;73.02;95486.31;4979539;28;20679;-83
2023/07/04 02:15:57;;;;;;;3.33;1.83;;;;;;;16.39;72.91;95489.81;4976072;28;20216;-82
2023/07/04 02:18:24;;;;;;;3.22;1.83;;;;;;;16.33;72.99;95485.31;4976014;28;20185;-82
2023/07/04 02:20:49;;;;;;;2.85;1.88;;;;;;;16.26;73.03;95485.25;4959512;28;20542;-82
2023/07/04 02:23:14;;;;;;;2.53;1.90;;;;;;;16.31;72.46;95484.69;4950614;29;20212;-85
2023/07/04 02:25:40;;;;;;;4.53;1.90;;;;;;;16.18;73.35;95479.31;4974115;28;20217;-82
2023/07/04 02:28:06;;;;;;;3.67;2.10;;;;;;;16.18;73.38;95484.53;4991373;28;20192;-82
2023/07/04 02:30:32;;;;;;;3.35;1.85;;;;;;;16.15;73.70;95486.50;4956018;28;20192;-82
2023/07/04 02:32:57;;;;;;;3.00;1.90;;;;;;;16.13;73.56;95479.84;4943350;28;20172;-83
2023/07/04 02:35:23;;;;;;;3.08;2.40;;;;;;;16.08;73.85;95480.41;4944999;29;20197;-82
2023/07/04 02:37:48;;;;;;;3.65;1.83;;;;;;;16.13;73.46;95477.22;4979575;28;20196;-85
2023/07/04 02:40:13;;;;;;;5.40;2.20;;;;;;;16.09;73.51;95476.78;4982909;28;20215;-83
2023/07/04 02:42:39;;;;;;;5.13;2.28;;;;;;;16.08;73.39;95480.41;4983966;28;20216;-83
2023/07/04 02:45:06;;;;;;;2.72;1.90;;;;;;;16.11;72.81;95482.66;4968770;28;20240;-82
2023/07/04 02:47:32;;;;;;;3.88;2.40;;;;;;;16.05;72.92;95485.19;4966771;28;20188;-82
2023/07/04 02:49:57;;;;;;;5.78;2.28;;;;;;;16.06;73.06;95481.56;4997080;28;20191;-83
2023/07/04 02:52:24;;;;;;;4.80;2.33;;;;;;;16.15;72.47;95477.84;4972988;28;20192;-84
2023/07/04 02:54:50;;;;;;;4.82;2.30;;;;;;;16.05;72.30;95487.81;4945556;29;20209;-82
2023/07/04 02:57:16;;;;;;;7.05;2.97;;;;;;;16.14;71.57;95491.94;4989090;28;20204;-83
2023/07/04 02:59:42;;;;;;;3.65;2.78;;;;;;;16.18;71.18;95489.78;4977566;28;20179;-83
2023/07/04 03:02:07;;;;;;;7.45;2.95;;;;;;;16.20;70.96;95493.84;4975763;28;20553;-82
2023/07/04 03:04:32;;;;;;;4.10;2.63;;;;;;;16.22;70.83;95493.66;4964491;28;20250;-82
2023/07/04 03:06:58;;;;;;;4.32;2.65;;;;;;;16.18;70.08;95492.41;4954783;29;20280;-83
2023/07/04 03:09:23;;;;;;;3.13;2.25;;;;;;;16.22;69.79;95498.88;4978373;28;20649;-83
2023/07/04 03:11:48;;;;;;;4.55;2.65;;;;;;;16.26;69.79;95497.53;4966303;28;20231;-82
2023/07/04 03:14:14;;;;;;;5.72;2.67;;;;;;;16.11;70.50;95505.41;4926813;29;20204;-82
2023/07/04 03:16:39;;;;;;;5.00;2.42;;;;;;;16.32;69.44;95502.03;4975581;28;20197;-83
2023/07/04 03:19:04;;;;;;;4.05;2.42;;;;;;;16.39;68.91;95502.91;4986318;28;20657;-83
2023/07/04 03:21:30;;;;;;;3.90;2.20;;;;;;;16.43;69.74;95505.00;4976427;28;20172;-83
2023/07/04 03:23:55;;;;;;;5.13;2.28;;;;;;;16.34;71.20;95497.41;4972436;28;20176;-83
2023/07/04 03:26:20;;;;;;;3.45;2.28;;;;;;;16.31;72.41;95503.03;4978782;28;20224;-84
2023/07/04 03:28:46;;;;;;;3.05;1.70;;;;;;;16.26;72.67;95502.78;4970721;28;20184;-83
2023/07/04 03:31:11;;;;;;;2.85;2.08;;;;;;;16.23;73.39;95503.94;5004161;28;20188;-86
2023/07/04 03:33:36;;;;;;;3.13;2.25;;;;;;;16.06;74.05;95513.81;4981593;28;20184;-88
2023/07/04 03:36:02;;;;;;;2.58;1.95;;;;;;;16.05;74.40;95520.03;4970345;28;20295;-82
2023/07/04 03:38:27;;;;;;;4.32;1.92;;;;;;;16.07;75.08;95518.06;4976266;28;20193;-82
2023/07/04 03:40:53;;;;;;;3.25;2.20;;;;;;;15.96;75.97;95515.91;4973299;28;20236;-82
2023/07/04 03:43:18;;;;;;;4.10;1.75;;;;;;;15.98;76.43;95516.53;4978686;28;20531;-82
2023/07/04 03:45:46;;;;;;;4.88;2.00;;;;;;;15.99;76.66;95520.78;4971586;28;20213;-82
2023/07/04 03:48:12;;;;;;;2.33;1.80;;;;;;;16.00;77.08;95516.38;4985086;28;20561;-82
2023/07/04 03:50:38;;;;;;;2.45;2.15;;;;;;;15.98;76.96;95521.75;4951888;28;20256;-82
2023/07/04 03:53:03;;;;;;;2.17;1.98;;;;;;;16.07;77.28;95515.44;4968241;28;20239;-83
2023/07/04 03:55:29;;;;;;;2.72;2.00;;;;;;;16.00;77.40;95516.38;4975523;28;20620;-82
2023/07/04 03:57:54;;;;;;;4.32;2.20;;;;;;;16.06;77.40;95518.22;4973554;28;20248;-82
2023/07/04 04:00:19;;;;;;;2.80;2.05;;;;;;;16.05;77.42;95522.66;4982726;28;20741;-84
2023/07/04 04:02:45;;;;;;;2.70;2.00;;;;;;;16.10;77.50;95522.13;4985885;28;20600;-83
2023/07/04 04:05:11;;;;;;;3.13;2.20;;;;;;;16.03;78.15;95523.84;4958499;28;20212;-82
2023/07/04 04:07:37;;;;;;;2.30;2.10;;;;;;;16.03;77.95;95526.47;4969128;28;20193;-82
2023/07/04 04:10:02;;;;;;;2.20;1.67;;;;;;;16.12;78.56;95517.53;4975632;28;20196;-82
2023/07/04 04:12:28;;;;;;;2.45;1.95;;;;;;;16.06;78.84;95518.22;4973497;28;20620;-85
2023/07/04 04:14:53;;;;;;;2.83;2.00;;;;;;;16.06;78.94;95520.84;4959060;28;20224;-83
2023/07/04 04:17:19;;;;;;;3.33;2.13;;;;;;;16.14;78.67;95518.13;4932985;29;20193;-83
2023/07/04 04:19:45;;;;;;;5.25;2.08;;;;;;;16.13;77.95;95521.75;4980369;28;20191;-87
2023/07/04 04:22:11;;;;;;;2.30;1.65;;;;;;;16.31;77.41;95516.94;4947754;28;20192;-83
2023/07/04 04:24:37;;;;;;;3.53;2.20;;;;;;;16.31;77.25;95516.13;4950123;28;20201;-86
2023/07/04 04:27:08;;;;;;;2.80;2.30;;;;;;;16.38;76.73;95514.41;4951149;28;20605;-86
2023/07/04 04:29:33;;;;;;;2.25;1.83;;;;;;;16.21;77.25;95515.59;4990743;28;20629;-85
2023/07/04 04:31:59;;;;;;;3.80;1.98;;;;;;;16.54;76.14;95518.63;4975527;28;20184;-82
2023/07/04 04:34:24;;;;;;;3.90;2.40;;;;;;;16.72;75.19;95526.91;4993458;28;20188;-82
2023/07/04 04:36:49;;;;;;;3.45;2.20;;;;;;;16.87;74.23;95521.59;4940887;28;20236;-80
2023/07/04 04:39:14;;;;;;;3.47;2.05;;;;;;;16.98;73.92;95519.31;4967043;28;20196;-78
2023/07/04 04:41:41;;;;;;;3.42;2.40;;;;;;;16.96;73.81;95525.72;4960794;28;20181;-80
2023/07/04 04:44:06;;;;;;;2.90;2.10;;;;;;;17.32;72.18;95523.03;4983721;28;20785;-79
2023/07/04 04:46:32;;;;;;;4.13;2.45;;;;;;;17.43;71.83;95527.75;4958725;28;20235;-86
2023/07/04 04:49:03;;;;;;;4.40;2.35;;;;;;;17.80;70.49;95531.06;4983219;28;20211;-86
2023/07/04 04:51:30;;;;;;;4.70;2.35;;;;;;;18.04;69.48;95535.88;4967556;28;20180;-84
2023/07/04 04:53:55;;;;;;;4.13;2.05;;;;;;;18.23;68.06;95530.91;4960941;28;20600;-87
2023/07/04 04:56:20;;;;;;;3.65;2.20;;;;;;;20.27;61.22;95532.13;4983814;28;20196;-86
2023/07/04 04:58:46;;;;;;;3.50;1.92;;;;;;;21.80;55.75;95537.31;4950489;28;20195;-92
2023/07/04 05:01:14;;;;;;;1.98;1.52;;;;;;;22.89;52.31;95544.50;4969297;28;20196;-85
2023/07/04 05:03:41;;;;;;;3.72;1.92;;;;;;;24.37;47.51;95542.75;4978278;28;20173;-85
2023/07/04 05:06:06;;;;;;;4.55;1.90;;;;;;;24.79;45.51;95553.94;4949184;28;20730;-89
2023/07/04 05:08:33;;;;;;;1.73;1.60;;;;;;;25.43;43.45;95547.44;4954725;28;20195;-86
2023/07/04 05:11:01;;;;;;;3.50;1.95;;;;;;;26.18;41.43;95559.53;4956170;29;20181;-84
2023/07/04 05:13:27;;;;;;;2.55;2.10;;;;;;;25.72;42.28;95549.25;4963359;28;20561;-90
2023/07/04 05:16:00;;;;;;;2.38;1.88;;;;;;;27.61;37.95;95558.50;4952929;28;20208;-86
2023/07/04 05:18:25;;;;;;;2.75;1.85;;;;;;;27.88;37.03;95559.28;4960946;28;20662;-85
2023/07/04 05:20:59;;;;;;;3.50;1.85;;;;;;;27.98;36.21;95563.88;4958912;28;20362;-87
2023/07/04 05:23:24;;;;;;;3.40;1.88;;;;;;;28.46;35.53;95568.22;4987447;28;20192;-84
2023/07/04 05:26:01;;;;;;;3.35;2.10;;;;;;;29.23;34.44;95568.50;4970011;28;20232;-86
2023/07/04 05:28:27;;;;;;;3.20;1.90;;;;;;;28.49;36.06;95558.88;4974221;28;20561;-86
2023/07/04 05:31:20;;;;;;;3.45;2.05;;;;;;;29.58;33.11;95568.59;4964733;28;20635;-86
2023/07/04 05:33:46;;;;;;;3.53;2.20;;;;;;;26.52;38.20;95572.78;4949071;28;20255;-86
2023/07/04 05:36:17;;;;;;;4.47;2.30;;;;;;;25.23;39.67;95570.19;4977477;28;20231;-87
2023/07/04 05:38:43;;;;;;;3.40;2.33;;;;;;;27.08;37.84;95563.59;4952465;28;20267;-84
2023/07/04 05:41:10;;;;;;;4.15;2.67;;;;;;;27.68;35.60;95563.66;4963672;28;20599;-86
2023/07/04 05:43:36;;;;;;;6.20;2.65;;;;;;;28.40;33.94;95569.25;4950436;28;20220;-86
2023/07/04 05:46:01;;;;;;;7.47;2.50;;;;;;;25.40;38.03;95568.38;4982993;28;20212;-85
2023/07/04 05:48:27;;;;;;;3.92;2.17;;;;;;;26.09;38.53;95566.31;4959471;28;20207;-85
2023/07/04 05:50:57;;;;;;;4.32;2.30;;;;;;;25.98;37.39;95569.88;4948871;28;20204;-85
2023/07/04 05:53:25;;;;;;;3.75;2.55;;;;;;;24.88;40.20;95565.81;4988432;28;20189;-85
2023/07/04 05:55:51;;;;;;;5.53;2.53;;;;;;;23.43;42.73;95570.00;4981210;28;20204;-86
2023/07/04 05:58:20;;;;;;;3.75;2.28;;;;;;;23.69;43.10;95570.66;4984612;28;20243;-85
2023/07/04 06:00:47;;;;;;;4.80;2.60;;;;;;;25.31;40.25;95572.47;4981987;28;20205;-85
2023/07/04 06:03:17;;;;;;;7.10;3.20;;;;;;;26.01;39.21;95576.56;4980735;28;20192;-85
2023/07/04 06:05:43;;;;;;;6.55;2.45;;;;;;;26.96;36.36;95575.44;4954266;28;20221;-85
2023/07/04 06:08:08;;;;;;;5.38;2.17;;;;;;;27.54;35.14;95584.56;4963359;28;20196;-86
2023/07/04 06:10:35;;;;;;;8.00;2.90;;;;;;;28.15;31.82;95577.88;4985507;28;20658;-85
2023/07/04 06:13:00;;;;;;;7.03;2.65;;;;;;;27.55;34.17;95586.19;4965199;28;20245;-86
2023/07/04 06:15:26;;;;;;;6.97;3.25;;;;;;;27.61;33.06;95583.31;4983857;28;20217;-86
2023/07/04 06:17:51;;;;;;;6.20;3.50;;;;;;;28.06;33.20;95584.75;4963501;28;20189;-86
2023/07/04 06:20:18;;;;;;;6.07;3.03;;;;;;;26.63;35.29;95577.19;4970827;28;20240;-85
2023/07/04 06:22:44;;;;;;;7.05;3.30;;;;;;;25.23;37.58;95583.47;4938490;28;20191;-85
2023/07/04 06:25:09;;;;;;;7.78;2.97;;;;;;;24.36;39.34;95576.44;4983033;28;20224;-86
2023/07/04 06:27:35;;;;;;;5.43;2.83;;;;;;;23.49;41.82;95586.00;4947774;28;20192;-86
2023/07/04 06:30:00;;;;;;;6.28;3.92;;;;;;;22.94;41.69;95576.38;4983228;28;20604;-86
2023/07/04 06:32:25;;;;;;;7.18;3.58;;;;;;;22.17;43.84;95586.59;4962651;28;20181;-86
2023/07/04 06:34:50;;;;;;;6.85;2.97;;;;;;;21.55;45.78;95583.03;4976868;28;20208;-84
2023/07/04 06:37:16;;;;;;;7.13;3.42;;;;;;;21.76;45.39;95593.25;4937619;28;20197;-84
2023/07/04 06:39:42;;;;;;;7.18;3.20;;;;;;;21.60;46.88;95590.34;4962685;28;20203;-84
2023/07/04 06:42:07;;;;;;;6.43;3.67;;;;;;;21.39;47.53;95591.53;4985418;28;20188;-85
2023/07/04 06:44:32;;;;;;;6.65;3.03;;;;;;;21.18;48.06;95593.41;4960961;28;20235;-83
2023/07/04 06:46:58;;;;;;;4.95;3.15;;;;;;;21.33;48.24;95606.38;4965845;28;20195;-83
2023/07/04 06:49:23;;;;;;;7.40;3.30;;;;;;;23.20;44.79;95604.34;4956766;28;20192;-83
2023/07/04 06:51:48;;;;;;;6.20;3.58;;;;;;;23.43;42.88;95599.16;4947189;28;20211;-85
2023/07/04 06:54:14;;;;;;;7.35;2.92;;;;;;;22.97;43.67;95609.56;4932882;28;20288;-84
2023/07/04 06:56:39;;;;;;;8.77;3.47;;;;;;;22.98;44.00;95603.25;4961374;28;20193;-84
2023/07/04 06:59:04;;;;;;;8.60;3.80;;;;;;;24.18;41.38;95605.72;4972355;28;20184;-84
2023/07/04 07:01:32;;;;;;;7.20;4.03;;;;;;;24.13;42.25;95610.94;4952971;28;21084;-84
2023/07/04 07:03:59;;;;;;;9.68;3.42;;;;;;;23.95;41.92;95617.94;4963454;28;20189;-85
2023/07/04 07:06:25;;;;;;;6.30;2.80;;;;;;;23.75;42.25;95625.41;4950320;28;20220;-84
2023/07/04 07:08:50;;;;;;;8.07;3.08;;;;;;;23.62;43.28;95615.81;4963309;28;20192;-85
2023/07/04 07:11:18;;;;;;;8.05;3.60;;;;;;;22.93;45.16;95617.16;4979929;28;20259;-85
2023/07/04 07:13:44;;;;;;;10.55;3.45;;;;;;;22.81;45.35;95619.72;4964824;28;20693;-84
2023/07/04 07:16:24;;;;;;;7.05;3.30;;;;;;;23.85;42.08;95614.22;4965486;28;20217;-85
2023/07/04 07:18:51;;;;;;;5.93;3.30;;;;;;;26.71;37.59;95618.56;4971553;28;20184;-84
2023/07/04 07:21:20;;;;;;;9.15;3.40;;;;;;;27.00;36.72;95627.97;4981967;28;20196;-84
2023/07/04 07:23:46;;;;;;;5.78;3.17;;;;;;;26.84;37.17;95626.19;4967051;28;20197;-85
2023/07/04 07:26:14;;;;;;;4.55;3.10;;;;;;;26.08;38.25;95631.22;4983963;28;20217;-83
2023/07/04 07:28:40;;;;;;;10.90;3.85;;;;;;;24.82;38.46;95625.16;4947101;28;20192;-83
2023/07/04 07:31:20;;;;;;;9.35;3.70;;;;;;;24.08;40.60;95629.38;4979175;28;20181;-81
2023/07/04 07:33:45;;;;;;;7.38;3.40;;;;;;;26.07;37.58;95634.13;4981530;28;20246;-80
2023/07/04 07:36:26;;;;;;;7.13;3.80;;;;;;;26.16;36.33;95636.16;4969684;28;20208;-82
2023/07/04 07:38:53;;;;;;;6.53;3.45;;;;;;;26.94;35.65;95630.81;4968322;28;20199;-81
2023/07/04 07:41:20;;;;;;;4.88;3.00;;;;;;;27.68;34.43;95628.50;4970319;28;20247;-80
2023/07/04 07:43:46;;;;;;;5.32;2.83;;;;;;;26.73;36.28;95637.78;4979546;28;20663;-82
2023/07/04 07:46:13;;;;;;;8.32;3.42;;;;;;;25.97;36.45;95634.75;4969050;28;20267;-80
2023/07/04 07:48:39;;;;;;;10.45;4.32;;;;;;;24.61;39.17;95634.56;4980337;28;20200;-80
2023/07/04 07:51:07;;;;;;;6.45;2.95;;;;;;;26.55;35.86;95625.53;4964819;28;20185;-80
2023/07/04 07:53:34;;;;;;;5.93;3.15;;;;;;;27.22;34.04;95625.34;4961860;28;20196;-82
2023/07/04 07:56:00;;;;;;;6.03;3.50;;;;;;;26.00;35.59;95628.97;4967143;28;20287;-81
2023/07/04 07:58:25;;;;;;;6.03;3.15;;;;;;;26.97;35.49;95636.47;4983554;28;20272;-81
2023/07/04 08:00:50;;;;;;;5.82;3.53;;;;;;;27.31;33.92;95625.69;4973002;28;20574;-81
2023/07/04 08:03:16;;;;;;;8.70;3.88;;;;;;;27.43;33.18;95625.53;4980507;28;20189;-80
2023/07/04 08:05:42;;;;;;;6.95;3.67;;;;;;;27.59;34.36;95630.78;4943957;28;20272;-80
2023/07/04 08:08:08;;;;;;;8.27;4.13;;;;;;;27.13;34.62;95634.03;4976486;28;20223;-82
2023/07/04 08:10:38;;;;;;;7.28;3.63;;;;;;;27.70;33.14;95623.69;4976003;28;20563;-82
2023/07/04 08:13:04;;;;;;;8.88;4.07;;;;;;;27.99;32.91;95621.53;4973275;28;20201;-81
2023/07/04 08:15:30;;;;;;;9.23;3.67;;;;;;;28.48;32.31;95613.38;4952714;28;20220;-80
2023/07/04 08:17:55;;;;;;;7.22;4.00;;;;;;;28.31;31.44;95613.53;4953898;28;20215;-82
2023/07/04 08:20:23;;;;;;;7.45;5.13;;;;;;;27.52;31.44;95618.69;4972614;28;20231;-81
2023/07/04 08:22:49;;;;;;;8.13;4.90;;;;;;;27.42;31.92;95623.94;4981323;28;20227;-81
2023/07/04 08:25:14;;;;;;;9.32;4.50;;;;;;;26.60;34.02;95624.81;4953909;28;20243;-81
2023/07/04 08:27:40;;;;;;;10.40;4.53;;;;;;;27.22;33.24;95617.34;4979382;28;20201;-80
2023/07/04 08:30:06;;;;;;;8.02;3.75;;;;;;;27.05;33.85;95621.94;4945755;28;20189;-81
2023/07/04 08:32:33;;;;;;;8.55;4.35;;;;;;;27.22;33.03;95624.53;4973924;28;20200;-81
2023/07/04 08:34:59;;;;;;;10.95;4.70;;;;;;;27.17;33.42;95614.63;4947222;28;20201;-80
2023/07/04 08:37:24;;;;;;;7.20;3.92;;;;;;;27.25;32.74;95632.03;4962798;28;20176;-80
2023/07/04 08:39:50;;;;;;;11.23;4.72;;;;;;;26.99;32.60;95623.72;4994516;28;20236;-79
2023/07/04 08:42:16;;;;;;;10.63;5.03;;;;;;;27.45;31.75;95626.09;4985935;28;20193;-80
2023/07/04 08:44:50;;;;;;;9.23;5.65;;;;;;;26.91;32.34;95629.47;4969096;28;20208;-80
2023/07/04 08:47:17;;;;;;;9.30;5.55;;;;;;;26.40;32.96;95626.13;4946642;28;20189;-80
2023/07/04 08:50:02;;;;;;;10.43;6.03;;;;;;;26.29;32.95;95629.66;4959991;28;20196;-80
2023/07/04 08:52:34;;;;;;;8.40;5.28;;;;;;;26.18;32.27;95626.06;4973204;28;20212;-80
2023/07/04 08:55:00;;;;;;;7.20;5.18;;;;;;;26.03;33.78;95619.69;4964454;28;20686;-82
2023/07/04 08:57:55;;;;;;;10.57;5.18;;;;;;;26.53;31.99;95625.78;4987846;28;20216;-82
2023/07/04 09:00:38;;;;;;;27.88;6.03;;;;;;;26.24;33.52;95627.75;4980976;28;20637;-82
2023/07/04 09:03:44;;;;;;;7.35;4.22;;;;;;;26.14;34.65;95624.91;4969193;28;20211;-82
2023/07/04 09:06:51;;;;;;;10.27;4.40;;;;;;;26.26;33.65;95624.84;4976392;28;20223;-82
2023/07/04 09:09:38;;;;;;;8.90;4.53;;;;;;;26.42;35.38;95625.91;4883259;29;20205;-81
2023/07/04 09:12:04;;;;;;;8.73;4.82;;;;;;;26.01;33.49;95619.94;4899766;29;20199;-81
2023/07/04 09:14:40;;;;;;;9.00;5.53;;;;;;;26.48;33.00;95616.91;4883086;29;20225;-81
2023/07/04 09:17:25;;;;;;;7.65;5.22;;;;;;;26.38;32.72;95624.78;4879541;29;20231;-82
2023/07/04 09:19:51;;;;;;;7.60;4.80;;;;;;;26.49;32.55;95618.53;4896796;29;20314;-81
2023/07/04 09:22:17;;;;;;;6.28;5.07;;;;;;;26.00;32.37;95626.31;4898757;29;20199;-82
2023/07/04 09:24:43;;;;;;;8.77;5.38;;;;;;;26.74;31.69;95626.84;4897006;29;20229;-81
2023/07/04 09:27:10;;;;;;;7.82;5.22;;;;;;;26.77;32.57;95630.91;4890676;29;20206;-81
2023/07/04 09:29:35;;;;;;;11.82;5.82;;;;;;;26.42;31.90;95625.91;4895581;29;20187;-81
2023/07/04 09:32:01;;;;;;;9.10;5.75;;;;;;;26.73;31.38;95632.44;4894209;29;20284;-81
2023/07/04 09:34:31;;;;;;;9.18;6.10;;;;;;;26.10;31.06;95630.97;4898290;29;20277;-83
2023/07/04 09:36:58;;;;;;;8.52;6.05;;;;;;;26.20;32.04;95628.47;4899305;29;20275;-81
2023/07/04 09:39:46;;;;;;;7.03;5.07;;;;;;;26.61;31.32;95627.22;4902804;29;20207;-81
2023/07/04 09:42:11;;;;;;;8.07;5.78;;;;;;;25.89;32.32;95625.34;4903189;29;20206;-81
2023/07/04 09:44:38;;;;;;;7.05;4.95;;;;;;;26.64;31.42;95620.59;4932990;28;20219;-82
2023/07/04 09:47:04;;;;;;;11.43;5.93;;;;;;;27.02;30.96;95623.19;4969478;28;20622;-82
2023/07/04 09:49:35;;;;;;;6.80;4.85;;;;;;;26.79;32.08;95621.59;4969579;28;20196;-82
2023/07/04 09:52:14;;;;;;;8.38;5.82;;;;;;;25.77;33.86;95611.31;4983424;28;20193;-83
2023/07/04 09:54:41;;;;;;;5.97;4.82;;;;;;;26.13;32.21;95623.31;4976937;28;20204;-83
2023/07/04 09:57:22;;;;;;;7.13;5.60;;;;;;;26.00;31.57;95621.00;4958140;28;20184;-83
2023/07/04 09:59:49;;;;;;;6.80;5.05;;;;;;;26.09;31.71;95621.38;4957627;28;20674;-82
2023/07/04 10:02:18;;;;;;;9.13;5.82;;;;;;;26.52;31.52;95621.53;4976497;28;20200;-83
2023/07/04 10:04:46;;;;;;;7.50;5.22;;;;;;;26.63;31.41;95619.00;4985805;28;20208;-82
2023/07/04 10:07:16;;;;;;;7.50;5.05;;;;;;;26.47;31.74;95610.78;4974004;28;20188;-82
2023/07/04 10:09:48;;;;;;;10.05;5.93;;;;;;;26.39;32.45;95613.88;4984489;28;20192;-83
2023/07/04 10:12:14;;;;;;;7.97;5.53;;;;;;;26.77;31.16;95612.25;4969967;28;20657;-82
2023/07/04 10:14:52;;;;;;;7.82;5.40;;;;;;;26.57;32.87;95610.13;4964144;28;20201;-82
2023/07/04 10:17:37;;;;;;;8.93;4.88;;;;;;;26.91;33.29;95618.00;4966581;28;20184;-82
2023/07/04 10:20:12;;;;;;;7.55;5.50;;;;;;;27.64;32.33;95609.47;4929286;28;20208;-83
2023/07/04 10:22:40;;;;;;;7.50;5.13;;;;;;;27.82;30.54;95616.31;4977915;28;20188;-83
2023/07/04 10:25:14;;;;;;;7.50;5.32;;;;;;;26.66;29.55;95608.63;4985772;28;20204;-83
2023/07/04 10:27:42;;;;;;;9.73;5.32;;;;;;;26.54;29.94;95613.28;4980880;28;20220;-82
2023/07/04 10:30:15;;;;;;;6.35;5.43;;;;;;;26.38;29.20;95606.94;4963514;28;20548;-83
2023/07/04 10:32:48;;;;;;;8.05;5.70;;;;;;;26.66;28.88;95610.50;4941682;28;20223;-83
2023/07/04 10:35:19;;;;;;;7.10;5.65;;;;;;;26.72;27.74;95605.00;4944030;28;20300;-81
2023/07/04 10:37:52;;;;;;;6.82;5.68;;;;;;;26.85;29.27;95611.00;4968558;28;20256;-83
2023/07/04 10:40:19;;;;;;;6.30;5.07;;;;;;;26.64;28.59;95605.44;4971355;28;20560;-82
2023/07/04 10:43:05;;;;;;;6.18;5.00;;;;;;;26.98;29.07;95594.66;4956544;28;20184;-83
2023/07/04 10:45:31;;;;;;;6.05;5.07;;;;;;;26.64;28.92;95605.44;4965616;28;20312;-83
2023/07/04 10:48:05;;;;;;;5.85;4.85;;;;;;;26.76;29.32;95599.97;4947864;28;20189;-82
2023/07/04 10:50:36;;;;;;;5.88;5.00;;;;;;;26.46;29.83;95603.84;4958729;28;20211;-81
2023/07/04 10:53:03;;;;;;;6.88;5.15;;;;;;;26.31;29.56;95592.16;4962363;28;20231;-87
2023/07/04 10:55:45;;;;;;;6.20;4.78;;;;;;;26.51;29.19;95598.63;4987504;28;20201;-86
2023/07/04 10:58:17;;;;;;;6.88;4.80;;;;;;;26.16;28.22;95592.75;4980744;28;20211;-87
2023/07/04 11:00:49;;;;;;;7.55;4.75;;;;;;;25.39;29.90;95586.19;4979371;28;20267;-87
2023/07/04 11:03:37;;;;;;;5.88;4.15;;;;;;;26.18;28.79;95596.78;4986447;28;20272;-86
2023/07/04 11:06:08;;;;;;;5.78;4.75;;;;;;;26.62;29.14;95593.41;4941314;28;20220;-86
2023/07/04 11:08:34;;;;;;;5.13;4.20;;;;;;;26.59;28.09;95602.69;4958376;28;20189;-86
2023/07/04 11:11:05;;;;;;;7.43;4.63;;;;;;;26.27;27.83;95592.66;4958932;28;20188;-86
2023/07/04 11:13:31;;;;;;;5.93;4.15;;;;;;;26.39;29.38;95594.44;4955789;28;20254;-87
2023/07/04 11:16:00;;;;;;;5.55;4.95;;;;;;;26.80;29.64;95599.25;4961016;28;20252;-87
2023/07/04 11:18:30;;;;;;;5.90;4.47;;;;;;;26.59;28.48;95589.38;4960940;28;20197;-87
2023/07/04 11:21:11;;;;;;;10.20;5.00;;;;;;;26.83;28.42;95593.41;4937749;28;20566;-87
2023/07/04 11:23:50;;;;;;;6.43;4.75;;;;;;;26.91;29.29;95594.03;4962682;28;20622;-87
2023/07/04 11:26:17;;;;;;;8.30;5.10;;;;;;;26.59;28.81;95584.03;4959898;28;20232;-87
2023/07/04 11:28:48;;;;;;;9.32;4.55;;;;;;;26.75;28.74;95591.16;4978186;28;20215;-88
2023/07/04 11:31:24;;;;;;;7.32;4.82;;;;;;;26.82;29.05;95591.00;4957060;28;20279;-88
2023/07/04 11:33:56;;;;;;;7.88;4.45;;;;;;;26.18;30.28;95580.81;4962865;29;20185;-86
2023/07/04 11:36:33;;;;;;;6.38;4.38;;;;;;;25.91;30.19;95579.88;4975263;28;20210;-86
2023/07/04 11:39:06;;;;;;;5.28;4.25;;;;;;;25.96;30.32;95583.41;4987111;28;20310;-85